Belita — 2EVE4 — position and weather

sailwx.info

Track history (hours):
 
Tides and Currents Weather Stations Pressure Air Temp Water Temp Dewpoint Dewpoint Depression Visibility Wind Speed Wind Dir Waves Ship Positions

Belita

Last reported at 2018-Jul-22 19:53 UTC. Time now 2018-Jul-22 20:00 UTC.
Position N 37°48' E 023°47'.

Length 50 m; draft 3 m.

Type: Pleasure craft. MMSI: 235088427.

Date/timePositionNaut miles runAvg speedWind from/ knotsBaromVisibWave heightAir tempDewpointWater temp
2018-Jul-22 19:53N 37°48' E 023°47'0 0.1
2018-Jul-22 19:30N 37°48' E 023°47'0 0.0
2018-Jul-22 19:00N 37°48' E 023°47'  
2018-Jul-19 07:20N 37°03' E 025°03'5 0.3
2018-Jul-18 15:31N 37°05' E 025°08'212.2
2018-Jul-18 15:24N 37°05' E 025°07'8 1.0
2018-Jul-18 07:42N 37°02' E 025°15'213.2
2018-Jul-18 07:30N 37°04' E 025°17'5 9.8
2018-Jul-18 07:01N 37°06' E 025°22'0 0.1
2018-Jul-18 06:30N 37°06' E 025°22'0 0.0
2018-Jul-18 06:00N 37°06' E 025°22'0 0.0
2018-Jul-18 05:30N 37°06' E 025°22'0 0.0
2018-Jul-18 05:00N 37°06' E 025°22'0 0.0
2018-Jul-18 04:30N 37°06' E 025°22'0 0.0
2018-Jul-18 04:00N 37°06' E 025°22'0 0.0
2018-Jul-18 03:30N 37°06' E 025°22'0 0.0
2018-Jul-18 03:00N 37°06' E 025°22'0 0.0
2018-Jul-18 02:30N 37°06' E 025°22'0 0.0
2018-Jul-18 02:00N 37°06' E 025°22'0 0.0
2018-Jul-18 01:30N 37°06' E 025°22'0 0.0
2018-Jul-18 01:00N 37°06' E 025°22'0 0.0
2018-Jul-18 00:30N 37°06' E 025°22'0 0.0
2018-Jul-18 00:00N 37°06' E 025°22'0 0.0
2018-Jul-17 23:30N 37°06' E 025°22'0 0.0
2018-Jul-17 23:00N 37°06' E 025°22'0 0.0
2018-Jul-17 22:30N 37°06' E 025°22'0 0.0
2018-Jul-17 22:00N 37°06' E 025°22'0 0.0
2018-Jul-17 21:30N 37°06' E 025°22'0 0.0
2018-Jul-17 21:00N 37°06' E 025°22'0 0.0
2018-Jul-17 20:30N 37°06' E 025°22'0 0.0
2018-Jul-17 20:00N 37°06' E 025°22'0 0.0
2018-Jul-17 19:30N 37°06' E 025°22'0 0.0
2018-Jul-17 19:00N 37°06' E 025°22'0 0.0
2018-Jul-17 18:30N 37°06' E 025°22'0 0.0
2018-Jul-17 18:00N 37°06' E 025°22'0 0.0
2018-Jul-17 17:30N 37°06' E 025°22'0 0.0
2018-Jul-17 17:00N 37°06' E 025°22'2 3.1
2018-Jul-17 16:29N 37°06' E 025°21'612.1
2018-Jul-17 16:00N 36°60' E 025°22'1 0.1
2018-Jul-17 09:42N 36°59' E 025°22'313.3
2018-Jul-17 09:30N 37°02' E 025°21'5 9.5
2018-Jul-17 09:00N 37°06' E 025°22'0 0.0
2018-Jul-17 08:31N 37°06' E 025°22'5 9.6
2018-Jul-17 08:00N 37°11' E 025°21'612.8
2018-Jul-17 07:30N 37°17' E 025°20'612.7
2018-Jul-17 07:00N 37°24' E 025°19'4 3.7
2018-Jul-17 06:03N 37°27' E 025°20'  
2018-Jul-13 09:17N 37°27' E 025°19'1 1.6
2018-Jul-13 08:44N 37°28' E 025°19'712.7
2018-Jul-13 08:11N 37°31' E 025°11'2 9.3
2018-Jul-13 08:00N 37°32' E 025°10'0 0.0
2018-Jul-13 07:30N 37°32' E 025°10'0 0.0
2018-Jul-13 07:00N 37°32' E 025°10'0 0.0
2018-Jul-13 06:29N 37°32' E 025°10'0 0.0
2018-Jul-13 06:00N 37°32' E 025°10'0 0.0
2018-Jul-13 05:30N 37°32' E 025°10'0 0.0
2018-Jul-13 05:00N 37°32' E 025°10'0 0.0
2018-Jul-13 04:30N 37°32' E 025°10'0 0.0
2018-Jul-13 04:00N 37°32' E 025°10'0 0.0
2018-Jul-13 03:30N 37°32' E 025°10'0 0.0
2018-Jul-13 02:59N 37°32' E 025°10'0 0.0
2018-Jul-13 02:30N 37°32' E 025°10'0 0.0
2018-Jul-13 01:57N 37°32' E 025°10'0 0.0
2018-Jul-13 01:30N 37°32' E 025°10'0 0.0
2018-Jul-13 01:00N 37°32' E 025°10'0 0.0
2018-Jul-13 00:30N 37°32' E 025°10'0 0.0
2018-Jul-13 00:00N 37°32' E 025°10'0 0.0
2018-Jul-12 23:30N 37°32' E 025°10'0 0.0
2018-Jul-12 22:59N 37°32' E 025°10'0 0.0
2018-Jul-12 22:22N 37°32' E 025°10'0 0.0
2018-Jul-12 21:59N 37°32' E 025°10'0 0.0
2018-Jul-12 21:30N 37°32' E 025°10'0 0.0
2018-Jul-12 20:59N 37°32' E 025°10'0 0.0
2018-Jul-12 20:30N 37°32' E 025°10'0 0.0
2018-Jul-12 20:00N 37°32' E 025°10'  
Track history (hours):
 
Tides and Currents Weather Stations Pressure Air Temp Water Temp Dewpoint Dewpoint Depression Visibility Wind Speed Wind Dir Waves Ship Positions

Belita

Last reported at 2018-Jul-22 19:53 UTC. Time now 2018-Jul-22 20:00 UTC.
Position N 37°48' E 023°47'.

Length 50 m; draft 3 m.

Type: Pleasure craft. MMSI: 235088427.

Date/timePositionNaut miles runAvg speedWind from/ knotsBaromVisibWave heightAir tempDewpointWater temp
2018-Jul-22 19:53N 37°48' E 023°47'0 0.1
2018-Jul-22 19:30N 37°48' E 023°47'0 0.0
2018-Jul-22 19:00N 37°48' E 023°47'  
2018-Jul-19 07:20N 37°03' E 025°03'5 0.3
2018-Jul-18 15:31N 37°05' E 025°08'212.2
2018-Jul-18 15:24N 37°05' E 025°07'8 1.0
2018-Jul-18 07:42N 37°02' E 025°15'213.2
2018-Jul-18 07:30N 37°04' E 025°17'5 9.8
2018-Jul-18 07:01N 37°06' E 025°22'0 0.1
2018-Jul-18 06:30N 37°06' E 025°22'0 0.0
2018-Jul-18 06:00N 37°06' E 025°22'0 0.0
2018-Jul-18 05:30N 37°06' E 025°22'0 0.0
2018-Jul-18 05:00N 37°06' E 025°22'0 0.0
2018-Jul-18 04:30N 37°06' E 025°22'0 0.0
2018-Jul-18 04:00N 37°06' E 025°22'0 0.0
2018-Jul-18 03:30N 37°06' E 025°22'0 0.0
2018-Jul-18 03:00N 37°06' E 025°22'0 0.0
2018-Jul-18 02:30N 37°06' E 025°22'0 0.0
2018-Jul-18 02:00N 37°06' E 025°22'0 0.0
2018-Jul-18 01:30N 37°06' E 025°22'0 0.0
2018-Jul-18 01:00N 37°06' E 025°22'0 0.0
2018-Jul-18 00:30N 37°06' E 025°22'0 0.0
2018-Jul-18 00:00N 37°06' E 025°22'0 0.0
2018-Jul-17 23:30N 37°06' E 025°22'0 0.0
2018-Jul-17 23:00N 37°06' E 025°22'0 0.0
2018-Jul-17 22:30N 37°06' E 025°22'0 0.0
2018-Jul-17 22:00N 37°06' E 025°22'0 0.0
2018-Jul-17 21:30N 37°06' E 025°22'0 0.0
2018-Jul-17 21:00N 37°06' E 025°22'0 0.0
2018-Jul-17 20:30N 37°06' E 025°22'0 0.0
2018-Jul-17 20:00N 37°06' E 025°22'0 0.0
2018-Jul-17 19:30N 37°06' E 025°22'0 0.0
2018-Jul-17 19:00N 37°06' E 025°22'0 0.0
2018-Jul-17 18:30N 37°06' E 025°22'0 0.0
2018-Jul-17 18:00N 37°06' E 025°22'0 0.0
2018-Jul-17 17:30N 37°06' E 025°22'0 0.0
2018-Jul-17 17:00N 37°06' E 025°22'2 3.1
2018-Jul-17 16:29N 37°06' E 025°21'612.1
2018-Jul-17 16:00N 36°60' E 025°22'1 0.1
2018-Jul-17 09:42N 36°59' E 025°22'313.3
2018-Jul-17 09:30N 37°02' E 025°21'5 9.5
2018-Jul-17 09:00N 37°06' E 025°22'0 0.0
2018-Jul-17 08:31N 37°06' E 025°22'5 9.6
2018-Jul-17 08:00N 37°11' E 025°21'612.8
2018-Jul-17 07:30N 37°17' E 025°20'612.7
2018-Jul-17 07:00N 37°24' E 025°19'4 3.7
2018-Jul-17 06:03N 37°27' E 025°20'  
2018-Jul-13 09:17N 37°27' E 025°19'1 1.6
2018-Jul-13 08:44N 37°28' E 025°19'712.7
2018-Jul-13 08:11N 37°31' E 025°11'2 9.3
2018-Jul-13 08:00N 37°32' E 025°10'0 0.0
2018-Jul-13 07:30N 37°32' E 025°10'0 0.0
2018-Jul-13 07:00N 37°32' E 025°10'0 0.0
2018-Jul-13 06:29N 37°32' E 025°10'0 0.0
2018-Jul-13 06:00N 37°32' E 025°10'0 0.0
2018-Jul-13 05:30N 37°32' E 025°10'0 0.0
2018-Jul-13 05:00N 37°32' E 025°10'0 0.0
2018-Jul-13 04:30N 37°32' E 025°10'0 0.0
2018-Jul-13 04:00N 37°32' E 025°10'0 0.0
2018-Jul-13 03:30N 37°32' E 025°10'0 0.0
2018-Jul-13 02:59N 37°32' E 025°10'0 0.0
2018-Jul-13 02:30N 37°32' E 025°10'0 0.0
2018-Jul-13 01:57N 37°32' E 025°10'0 0.0
2018-Jul-13 01:30N 37°32' E 025°10'0 0.0
2018-Jul-13 01:00N 37°32' E 025°10'0 0.0
2018-Jul-13 00:30N 37°32' E 025°10'0 0.0
2018-Jul-13 00:00N 37°32' E 025°10'0 0.0
2018-Jul-12 23:30N 37°32' E 025°10'0 0.0
2018-Jul-12 22:59N 37°32' E 025°10'0 0.0
2018-Jul-12 22:22N 37°32' E 025°10'0 0.0
2018-Jul-12 21:59N 37°32' E 025°10'0 0.0
2018-Jul-12 21:30N 37°32' E 025°10'0 0.0
2018-Jul-12 20:59N 37°32' E 025°10'0 0.0
2018-Jul-12 20:30N 37°32' E 025°10'0 0.0
2018-Jul-12 20:00N 37°32' E 025°10'  

Dump ship's entire track history